sensor_id;sensor_type;location;lat;lon;timestamp;pressure;altitude;pressure_sealevel;temperature;humidity
74881;BME280;63427;49.654;6.596;2023-02-28T00:00:52;100691.48;;;1.63;32.11
74881;BME280;63427;49.654;6.596;2023-02-28T00:03:17;100689.46;;;1.65;31.26
74881;BME280;63427;49.654;6.596;2023-02-28T00:05:42;100689.03;;;1.64;31.09
74881;BME280;63427;49.654;6.596;2023-02-28T00:08:08;100689.93;;;1.48;31.25
74881;BME280;63427;49.654;6.596;2023-02-28T00:10:33;100687.73;;;1.43;31.22
74881;BME280;63427;49.654;6.596;2023-02-28T00:13:00;100691.67;;;1.84;31.58
74881;BME280;63427;49.654;6.596;2023-02-28T00:15:24;100695.66;;;1.53;32.36
74881;BME280;63427;49.654;6.596;2023-02-28T00:17:49;100697.93;;;1.68;32.55
74881;BME280;63427;49.654;6.596;2023-02-28T00:20:15;100691.32;;;1.56;32.51
74881;BME280;63427;49.654;6.596;2023-02-28T00:22:42;100687.68;;;1.21;32.47
74881;BME280;63427;49.654;6.596;2023-02-28T00:25:06;100691.16;;;1.22;32.85
74881;BME280;63427;49.654;6.596;2023-02-28T00:27:30;100690.82;;;1.08;32.83
74881;BME280;63427;49.654;6.596;2023-02-28T00:29:55;100689.06;;;1.38;32.96
74881;BME280;63427;49.654;6.596;2023-02-28T00:32:21;100690.78;;;1.00;33.08
74881;BME280;63427;49.654;6.596;2023-02-28T00:34:46;100691.86;;;1.28;33.14
74881;BME280;63427;49.654;6.596;2023-02-28T00:37:11;100689.64;;;1.20;33.26
74881;BME280;63427;49.654;6.596;2023-02-28T00:39:37;100692.21;;;1.08;33.11
74881;BME280;63427;49.654;6.596;2023-02-28T00:42:02;100691.92;;;1.06;33.15
74881;BME280;63427;49.654;6.596;2023-02-28T00:44:27;100689.63;;;1.00;33.42
74881;BME280;63427;49.654;6.596;2023-02-28T00:46:52;100688.22;;;1.08;33.06
74881;BME280;63427;49.654;6.596;2023-02-28T00:49:18;100689.41;;;0.99;32.90
74881;BME280;63427;49.654;6.596;2023-02-28T00:51:43;100693.84;;;1.14;33.03
74881;BME280;63427;49.654;6.596;2023-02-28T00:54:08;100691.36;;;0.96;33.23
74881;BME280;63427;49.654;6.596;2023-02-28T00:56:33;100691.53;;;1.16;33.21
74881;BME280;63427;49.654;6.596;2023-02-28T00:58:59;100689.97;;;0.89;33.38
74881;BME280;63427;49.654;6.596;2023-02-28T01:01:24;100693.31;;;0.71;33.39
74881;BME280;63427;49.654;6.596;2023-02-28T01:03:49;100690.90;;;0.82;33.71
74881;BME280;63427;49.654;6.596;2023-02-28T01:06:15;100692.36;;;0.78;34.15
74881;BME280;63427;49.654;6.596;2023-02-28T01:08:40;100692.73;;;0.69;34.04
74881;BME280;63427;49.654;6.596;2023-02-28T01:11:10;100698.39;;;0.64;33.89
74881;BME280;63427;49.654;6.596;2023-02-28T01:13:30;100698.04;;;0.66;34.06
74881;BME280;63427;49.654;6.596;2023-02-28T01:15:56;100696.50;;;0.75;34.22
74881;BME280;63427;49.654;6.596;2023-02-28T01:18:22;100698.17;;;0.46;34.32
74881;BME280;63427;49.654;6.596;2023-02-28T01:20:47;100698.55;;;0.64;34.34
74881;BME280;63427;49.654;6.596;2023-02-28T01:23:12;100699.62;;;0.68;34.27
74881;BME280;63427;49.654;6.596;2023-02-28T01:25:38;100700.08;;;0.83;34.28
74881;BME280;63427;49.654;6.596;2023-02-28T01:28:02;100700.74;;;0.62;34.20
74881;BME280;63427;49.654;6.596;2023-02-28T01:30:28;100700.15;;;0.27;34.08
74881;BME280;63427;49.654;6.596;2023-02-28T01:32:53;100697.83;;;0.41;34.24
74881;BME280;63427;49.654;6.596;2023-02-28T01:35:18;100702.31;;;0.52;34.30
74881;BME280;63427;49.654;6.596;2023-02-28T01:37:44;100700.87;;;0.76;34.18
74881;BME280;63427;49.654;6.596;2023-02-28T01:40:10;100697.23;;;0.15;34.28
74881;BME280;63427;49.654;6.596;2023-02-28T01:42:34;100699.84;;;0.67;34.66
74881;BME280;63427;49.654;6.596;2023-02-28T01:45:06;100699.09;;;0.37;34.59
74881;BME280;63427;49.654;6.596;2023-02-28T01:47:28;100694.97;;;0.54;34.37
74881;BME280;63427;49.654;6.596;2023-02-28T01:49:51;100693.18;;;0.60;34.40
74881;BME280;63427;49.654;6.596;2023-02-28T01:52:16;100691.84;;;0.29;34.60
74881;BME280;63427;49.654;6.596;2023-02-28T01:54:41;100693.28;;;0.23;34.53
74881;BME280;63427;49.654;6.596;2023-02-28T01:57:11;100690.81;;;0.07;34.46
74881;BME280;63427;49.654;6.596;2023-02-28T01:59:36;100688.03;;;0.33;34.39
74881;BME280;63427;49.654;6.596;2023-02-28T02:01:57;100683.87;;;0.14;34.37
74881;BME280;63427;49.654;6.596;2023-02-28T02:04:23;100682.61;;;0.39;34.40
74881;BME280;63427;49.654;6.596;2023-02-28T02:06:48;100684.33;;;0.48;34.69
74881;BME280;63427;49.654;6.596;2023-02-28T02:09:13;100684.41;;;0.44;34.58
74881;BME280;63427;49.654;6.596;2023-02-28T02:11:41;100685.45;;;0.48;34.60
74881;BME280;63427;49.654;6.596;2023-02-28T02:14:22;100680.24;;;0.15;34.74
74881;BME280;63427;49.654;6.596;2023-02-28T02:16:41;100681.04;;;0.16;34.66
74881;BME280;63427;49.654;6.596;2023-02-28T02:19:00;100680.30;;;0.38;34.73
74881;BME280;63427;49.654;6.596;2023-02-28T02:24:00;100676.43;;;0.13;34.81
74881;BME280;63427;49.654;6.596;2023-02-28T02:31:18;100672.89;;;0.28;35.05
74881;BME280;63427;49.654;6.596;2023-02-28T02:33:44;100667.30;;;0.20;35.08
74881;BME280;63427;49.654;6.596;2023-02-28T02:35:54;100669.21;;;0.15;35.25
74881;BME280;63427;49.654;6.596;2023-02-28T02:38:20;100667.25;;;0.26;35.23
74881;BME280;63427;49.654;6.596;2023-02-28T02:40:46;100670.45;;;0.25;35.24
74881;BME280;63427;49.654;6.596;2023-02-28T02:43:13;100669.24;;;-0.02;35.27
74881;BME280;63427;49.654;6.596;2023-02-28T02:45:36;100669.39;;;0.22;35.48
74881;BME280;63427;49.654;6.596;2023-02-28T02:47:59;100672.80;;;0.26;35.31
74881;BME280;63427;49.654;6.596;2023-02-28T02:50:28;100669.72;;;0.16;35.39
74881;BME280;63427;49.654;6.596;2023-02-28T02:52:53;100668.53;;;0.03;35.24
74881;BME280;63427;49.654;6.596;2023-02-28T02:55:15;100668.54;;;0.31;35.44
74881;BME280;63427;49.654;6.596;2023-02-28T02:57:45;100668.15;;;0.22;35.23
74881;BME280;63427;49.654;6.596;2023-02-28T03:00:06;100667.77;;;0.16;35.06
74881;BME280;63427;49.654;6.596;2023-02-28T03:02:32;100670.56;;;0.28;34.94
74881;BME280;63427;49.654;6.596;2023-02-28T03:04:59;100670.98;;;0.13;35.37
74881;BME280;63427;49.654;6.596;2023-02-28T03:07:21;100669.37;;;0.17;35.27
74881;BME280;63427;49.654;6.596;2023-02-28T03:09:51;100669.37;;;0.08;35.26
74881;BME280;63427;49.654;6.596;2023-02-28T03:12:12;100670.19;;;0.15;35.24
74881;BME280;63427;49.654;6.596;2023-02-28T03:14:48;100670.40;;;0.02;35.21
74881;BME280;63427;49.654;6.596;2023-02-28T03:17:22;100672.99;;;0.01;35.40
74881;BME280;63427;49.654;6.596;2023-02-28T03:19:43;100670.52;;;0.04;35.43
74881;BME280;63427;49.654;6.596;2023-02-28T03:22:02;100673.19;;;0.04;35.39
74881;BME280;63427;49.654;6.596;2023-02-28T03:24:24;100668.43;;;-0.10;35.57
74881;BME280;63427;49.654;6.596;2023-02-28T03:26:47;100672.06;;;-0.05;35.53
74881;BME280;63427;49.654;6.596;2023-02-28T03:29:15;100670.48;;;-0.16;35.64
74881;BME280;63427;49.654;6.596;2023-02-28T03:31:38;100673.53;;;-0.15;35.50
74881;BME280;63427;49.654;6.596;2023-02-28T03:34:03;100673.40;;;-0.20;35.69
74881;BME280;63427;49.654;6.596;2023-02-28T03:36:27;100672.15;;;-0.22;35.67
74881;BME280;63427;49.654;6.596;2023-02-28T03:38:53;100673.30;;;0.18;35.70
74881;BME280;63427;49.654;6.596;2023-02-28T03:41:19;100670.84;;;-0.41;36.13
74881;BME280;63427;49.654;6.596;2023-02-28T03:43:44;100671.98;;;-0.41;36.10
74881;BME280;63427;49.654;6.596;2023-02-28T03:46:10;100671.95;;;-0.47;36.02
74881;BME280;63427;49.654;6.596;2023-02-28T03:48:36;100667.07;;;-0.49;35.88
74881;BME280;63427;49.654;6.596;2023-02-28T03:50:58;100668.52;;;0.02;36.35
74881;BME280;63427;49.654;6.596;2023-02-28T03:53:26;100668.53;;;-0.41;36.69
74881;BME280;63427;49.654;6.596;2023-02-28T03:55:50;100672.46;;;-0.69;36.47
74881;BME280;63427;49.654;6.596;2023-02-28T03:58:17;100674.96;;;-0.23;36.66
74881;BME280;63427;49.654;6.596;2023-02-28T04:00:41;100674.25;;;-0.73;36.60
74881;BME280;63427;49.654;6.596;2023-02-28T04:03:04;100676.22;;;-0.77;36.82
74881;BME280;63427;49.654;6.596;2023-02-28T04:05:29;100677.35;;;-0.75;36.79
74881;BME280;63427;49.654;6.596;2023-02-28T04:08:03;100675.60;;;-0.68;37.00
74881;BME280;63427;49.654;6.596;2023-02-28T04:10:20;100678.89;;;-0.67;36.83
74881;BME280;63427;49.654;6.596;2023-02-28T04:12:45;100674.59;;;-0.46;36.94
74881;BME280;63427;49.654;6.596;2023-02-28T04:15:11;100675.73;;;-0.56;36.77
74881;BME280;63427;49.654;6.596;2023-02-28T04:17:36;100678.11;;;-0.60;37.08
74881;BME280;63427;49.654;6.596;2023-02-28T04:20:01;100678.95;;;-1.05;37.24
74881;BME280;63427;49.654;6.596;2023-02-28T04:22:27;100682.44;;;-0.72;37.25
74881;BME280;63427;49.654;6.596;2023-02-28T04:24:53;100682.71;;;-0.73;37.10
74881;BME280;63427;49.654;6.596;2023-02-28T04:27:18;100682.77;;;-0.72;37.31
74881;BME280;63427;49.654;6.596;2023-02-28T04:29:43;100678.99;;;-0.72;37.21
74881;BME280;63427;49.654;6.596;2023-02-28T04:32:08;100676.43;;;-0.95;37.00
74881;BME280;63427;49.654;6.596;2023-02-28T04:34:33;100679.39;;;-0.72;37.29
74881;BME280;63427;49.654;6.596;2023-02-28T04:36:59;100677.99;;;-1.02;37.21
74881;BME280;63427;49.654;6.596;2023-02-28T04:39:24;100678.97;;;-0.96;37.18
74881;BME280;63427;49.654;6.596;2023-02-28T04:41:50;100678.42;;;-0.78;37.09
74881;BME280;63427;49.654;6.596;2023-02-28T04:44:15;100672.41;;;-1.04;36.99
74881;BME280;63427;49.654;6.596;2023-02-28T04:46:40;100674.69;;;-0.80;37.28
74881;BME280;63427;49.654;6.596;2023-02-28T04:49:06;100673.77;;;-0.82;37.20
74881;BME280;63427;49.654;6.596;2023-02-28T04:51:31;100673.81;;;-0.86;37.24
74881;BME280;63427;49.654;6.596;2023-02-28T04:53:56;100676.31;;;-0.90;37.46
74881;BME280;63427;49.654;6.596;2023-02-28T04:56:22;100674.82;;;-0.86;37.37
74881;BME280;63427;49.654;6.596;2023-02-28T04:58:48;100677.41;;;-0.81;37.33
74881;BME280;63427;49.654;6.596;2023-02-28T05:01:21;100682.87;;;-1.32;37.44
74881;BME280;63427;49.654;6.596;2023-02-28T05:03:38;100679.93;;;-0.77;37.43
74881;BME280;63427;49.654;6.596;2023-02-28T05:06:04;100678.01;;;-0.84;37.33
74881;BME280;63427;49.654;6.596;2023-02-28T05:08:29;100678.09;;;-0.88;37.37
74881;BME280;63427;49.654;6.596;2023-02-28T05:10:54;100678.56;;;-0.94;37.99
74881;BME280;63427;49.654;6.596;2023-02-28T05:13:20;100679.37;;;-0.90;37.91
74881;BME280;63427;49.654;6.596;2023-02-28T05:15:45;100683.39;;;-0.97;37.95
74881;BME280;63427;49.654;6.596;2023-02-28T05:18:10;100680.51;;;-0.99;38.42
74881;BME280;63427;49.654;6.596;2023-02-28T05:20:35;100682.48;;;-1.03;38.23
74881;BME280;63427;49.654;6.596;2023-02-28T05:23:01;100683.50;;;-1.05;38.13
74881;BME280;63427;49.654;6.596;2023-02-28T05:25:26;100681.89;;;-1.15;38.27
74881;BME280;63427;49.654;6.596;2023-02-28T05:27:52;100681.16;;;-1.18;39.19
74881;BME280;63427;49.654;6.596;2023-02-28T05:30:17;100683.27;;;-1.10;38.73
74881;BME280;63427;49.654;6.596;2023-02-28T05:32:42;100685.54;;;-1.01;38.76
74881;BME280;63427;49.654;6.596;2023-02-28T05:35:09;100684.29;;;-1.07;38.73
74881;BME280;63427;49.654;6.596;2023-02-28T05:37:33;100684.52;;;-1.06;38.35
74881;BME280;63427;49.654;6.596;2023-02-28T05:39:58;100685.72;;;-1.17;40.45
74881;BME280;63427;49.654;6.596;2023-02-28T05:42:24;100688.46;;;-0.98;40.26
74881;BME280;63427;49.654;6.596;2023-02-28T05:44:50;100686.86;;;-0.96;39.66
74881;BME280;63427;49.654;6.596;2023-02-28T05:47:15;100684.51;;;-0.88;39.51
74881;BME280;63427;49.654;6.596;2023-02-28T05:49:40;100688.00;;;-0.86;39.50
74881;BME280;63427;49.654;6.596;2023-02-28T05:52:05;100692.09;;;-0.90;39.21
74881;BME280;63427;49.654;6.596;2023-02-28T05:54:31;100689.10;;;-0.87;39.33
74881;BME280;63427;49.654;6.596;2023-02-28T05:56:56;100689.88;;;-0.83;39.95
74881;BME280;63427;49.654;6.596;2023-02-28T05:59:21;100687.66;;;-1.10;39.49
74881;BME280;63427;49.654;6.596;2023-02-28T06:01:47;100687.93;;;-0.84;39.14
74881;BME280;63427;49.654;6.596;2023-02-28T06:04:12;100691.71;;;-0.81;40.00
74881;BME280;63427;49.654;6.596;2023-02-28T06:06:37;100688.75;;;-0.78;40.53
74881;BME280;63427;49.654;6.596;2023-02-28T06:09:03;100690.23;;;-0.89;39.82
74881;BME280;63427;49.654;6.596;2023-02-28T06:11:28;100690.96;;;-0.79;39.91
74881;BME280;63427;49.654;6.596;2023-02-28T06:13:54;100690.94;;;-1.05;39.73
74881;BME280;63427;49.654;6.596;2023-02-28T06:16:19;100692.71;;;-0.79;40.94
74881;BME280;63427;49.654;6.596;2023-02-28T06:18:44;100694.45;;;-1.23;40.83
74881;BME280;63427;49.654;6.596;2023-02-28T06:21:10;100695.48;;;-0.75;41.13
74881;BME280;63427;49.654;6.596;2023-02-28T06:23:35;100698.36;;;-0.59;41.00
74881;BME280;63427;49.654;6.596;2023-02-28T06:26:00;100698.25;;;-0.67;41.48
74881;BME280;63427;49.654;6.596;2023-02-28T06:28:26;100706.52;;;-1.06;40.47
74881;BME280;63427;49.654;6.596;2023-02-28T06:30:51;100710.63;;;-0.72;40.52
74881;BME280;63427;49.654;6.596;2023-02-28T06:33:16;100712.72;;;-0.73;40.49
74881;BME280;63427;49.654;6.596;2023-02-28T06:35:43;100712.75;;;-0.97;40.36
74881;BME280;63427;49.654;6.596;2023-02-28T06:38:07;100715.61;;;-0.43;40.74
74881;BME280;63427;49.654;6.596;2023-02-28T06:40:32;100718.60;;;-0.65;40.47
74881;BME280;63427;49.654;6.596;2023-02-28T06:42:57;100717.27;;;-0.43;40.43
74881;BME280;63427;49.654;6.596;2023-02-28T06:45:22;100718.33;;;-0.84;40.52
74881;BME280;63427;49.654;6.596;2023-02-28T06:47:47;100720.29;;;-0.62;40.29
74881;BME280;63427;49.654;6.596;2023-02-28T06:50:13;100720.61;;;-1.16;41.40
74881;BME280;63427;49.654;6.596;2023-02-28T06:52:39;100726.28;;;-0.67;40.64
74881;BME280;63427;49.654;6.596;2023-02-28T06:55:06;100731.70;;;-0.34;40.54
74881;BME280;63427;49.654;6.596;2023-02-28T06:57:30;100739.15;;;-0.78;39.95
74881;BME280;63427;49.654;6.596;2023-02-28T06:59:54;100738.98;;;-0.31;39.58
74881;BME280;63427;49.654;6.596;2023-02-28T07:02:20;100738.28;;;-0.30;40.22
74881;BME280;63427;49.654;6.596;2023-02-28T07:04:45;100739.45;;;-0.16;40.01
74881;BME280;63427;49.654;6.596;2023-02-28T07:07:11;100743.89;;;-0.42;40.00
74881;BME280;63427;49.654;6.596;2023-02-28T07:09:36;100744.99;;;-0.04;39.91
74881;BME280;63427;49.654;6.596;2023-02-28T07:12:01;100746.28;;;-0.46;39.98
74881;BME280;63427;49.654;6.596;2023-02-28T07:14:26;100743.33;;;-0.13;39.71
74881;BME280;63427;49.654;6.596;2023-02-28T07:16:52;100743.07;;;-0.36;39.70
74881;BME280;63427;49.654;6.596;2023-02-28T07:19:17;100746.23;;;-0.17;39.73
74881;BME280;63427;49.654;6.596;2023-02-28T07:21:42;100747.61;;;-0.15;39.66
74881;BME280;63427;49.654;6.596;2023-02-28T07:24:08;100754.59;;;-0.04;39.49
74881;BME280;63427;49.654;6.596;2023-02-28T07:26:33;100751.70;;;0.09;39.32
74881;BME280;63427;49.654;6.596;2023-02-28T07:28:58;100751.94;;;0.13;39.41
74881;BME280;63427;49.654;6.596;2023-02-28T07:31:24;100752.46;;;0.23;39.30
74881;BME280;63427;49.654;6.596;2023-02-28T07:33:49;100751.65;;;0.36;39.59
74881;BME280;63427;49.654;6.596;2023-02-28T07:36:16;100753.25;;;0.40;39.53
74881;BME280;63427;49.654;6.596;2023-02-28T07:38:41;100751.02;;;0.67;39.26
74881;BME280;63427;49.654;6.596;2023-02-28T07:41:05;100752.85;;;0.48;39.60
74881;BME280;63427;49.654;6.596;2023-02-28T07:43:31;100746.43;;;0.60;40.02
74881;BME280;63427;49.654;6.596;2023-02-28T07:46:02;100740.71;;;0.99;39.40
74881;BME280;63427;49.654;6.596;2023-02-28T07:48:22;100742.54;;;0.90;39.24
74881;BME280;63427;49.654;6.596;2023-02-28T07:50:54;100744.95;;;0.91;39.24
74881;BME280;63427;49.654;6.596;2023-02-28T07:53:13;100739.55;;;1.04;39.27
74881;BME280;63427;49.654;6.596;2023-02-28T07:55:38;100734.69;;;1.27;39.05
74881;BME280;63427;49.654;6.596;2023-02-28T07:58:03;100737.25;;;1.34;38.94
74881;BME280;63427;49.654;6.596;2023-02-28T08:00:28;100736.15;;;1.32;38.35
74881;BME280;63427;49.654;6.596;2023-02-28T08:02:54;100735.19;;;1.13;38.34
74881;BME280;63427;49.654;6.596;2023-02-28T08:05:20;100735.21;;;1.62;38.35
74881;BME280;63427;49.654;6.596;2023-02-28T08:07:45;100740.11;;;1.31;37.88
74881;BME280;63427;49.654;6.596;2023-02-28T08:10:11;100739.13;;;1.54;38.06
74881;BME280;63427;49.654;6.596;2023-02-28T08:12:36;100744.92;;;1.61;37.37
74881;BME280;63427;49.654;6.596;2023-02-28T08:15:02;100739.18;;;1.99;36.84
74881;BME280;63427;49.654;6.596;2023-02-28T08:17:28;100739.77;;;2.38;36.55
74881;BME280;63427;49.654;6.596;2023-02-28T08:19:53;100743.90;;;2.54;36.55
74881;BME280;63427;49.654;6.596;2023-02-28T08:22:18;100744.89;;;2.48;35.96
74881;BME280;63427;49.654;6.596;2023-02-28T08:24:44;100742.58;;;2.31;35.68
74881;BME280;63427;49.654;6.596;2023-02-28T08:27:09;100741.22;;;2.72;35.19
74881;BME280;63427;49.654;6.596;2023-02-28T08:29:36;100736.91;;;2.92;35.25
74881;BME280;63427;49.654;6.596;2023-02-28T08:32:00;100736.78;;;2.93;34.30
74881;BME280;63427;49.654;6.596;2023-02-28T08:34:25;100734.84;;;2.91;34.66
74881;BME280;63427;49.654;6.596;2023-02-28T08:36:51;100732.46;;;2.38;34.69
74881;BME280;63427;49.654;6.596;2023-02-28T08:39:16;100729.53;;;2.87;33.85
74881;BME280;63427;49.654;6.596;2023-02-28T08:41:42;100735.21;;;3.01;33.74
74881;BME280;63427;49.654;6.596;2023-02-28T08:44:07;100730.08;;;3.51;32.53
74881;BME280;63427;49.654;6.596;2023-02-28T08:46:32;100724.80;;;3.88;31.94
74881;BME280;63427;49.654;6.596;2023-02-28T08:48:58;100724.96;;;4.52;31.89
74881;BME280;63427;49.654;6.596;2023-02-28T08:51:23;100721.53;;;4.87;31.13
74881;BME280;63427;49.654;6.596;2023-02-28T08:53:48;100722.43;;;4.88;30.86
74881;BME280;63427;49.654;6.596;2023-02-28T08:56:14;100721.31;;;4.76;30.28
74881;BME280;63427;49.654;6.596;2023-02-28T08:58:39;100724.08;;;5.18;29.77
74881;BME280;63427;49.654;6.596;2023-02-28T09:01:09;100722.78;;;4.57;29.77
74881;BME280;63427;49.654;6.596;2023-02-28T09:03:29;100723.79;;;4.94;29.48
74881;BME280;63427;49.654;6.596;2023-02-28T09:05:57;100719.06;;;5.11;28.30
74881;BME280;63427;49.654;6.596;2023-02-28T09:08:21;100722.72;;;4.34;29.11
74881;BME280;63427;49.654;6.596;2023-02-28T09:10:46;100722.33;;;4.68;28.99
74881;BME280;63427;49.654;6.596;2023-02-28T09:13:11;100721.11;;;4.58;28.73
74881;BME280;63427;49.654;6.596;2023-02-28T09:15:37;100713.86;;;4.71;28.53
74881;BME280;63427;49.654;6.596;2023-02-28T09:18:02;100709.02;;;4.81;28.23
74881;BME280;63427;49.654;6.596;2023-02-28T09:20:27;100709.35;;;4.62;28.12
74881;BME280;63427;49.654;6.596;2023-02-28T09:22:52;100707.26;;;4.62;28.01
74881;BME280;63427;49.654;6.596;2023-02-28T09:25:18;100712.21;;;4.88;27.67
74881;BME280;63427;49.654;6.596;2023-02-28T09:27:44;100718.09;;;4.65;27.86
74881;BME280;63427;49.654;6.596;2023-02-28T09:30:10;100715.32;;;4.83;27.47
74881;BME280;63427;49.654;6.596;2023-02-28T09:32:34;100712.03;;;4.95;27.57
74881;BME280;63427;49.654;6.596;2023-02-28T09:35:00;100709.83;;;5.09;27.24
74881;BME280;63427;49.654;6.596;2023-02-28T09:37:26;100711.95;;;4.56;28.12
74881;BME280;63427;49.654;6.596;2023-02-28T09:39:52;100709.60;;;4.99;27.86
74881;BME280;63427;49.654;6.596;2023-02-28T09:42:21;100705.13;;;5.32;27.36
74881;BME280;63427;49.654;6.596;2023-02-28T09:44:47;100710.55;;;5.54;27.59
74881;BME280;63427;49.654;6.596;2023-02-28T09:47:14;100710.83;;;4.82;27.18
74881;BME280;63427;49.654;6.596;2023-02-28T09:49:38;100711.23;;;5.58;26.54
74881;BME280;63427;49.654;6.596;2023-02-28T09:52:03;100704.80;;;5.38;26.92
74881;BME280;63427;49.654;6.596;2023-02-28T09:54:29;100705.75;;;5.49;26.46
74881;BME280;63427;49.654;6.596;2023-02-28T09:56:55;100709.14;;;5.71;27.01
74881;BME280;63427;49.654;6.596;2023-02-28T09:59:28;100709.55;;;6.15;25.87
74881;BME280;63427;49.654;6.596;2023-02-28T10:01:47;100703.62;;;6.14;25.69
74881;BME280;63427;49.654;6.596;2023-02-28T10:04:13;100700.48;;;6.88;25.26
74881;BME280;63427;49.654;6.596;2023-02-28T10:06:36;100702.36;;;6.66;25.02
74881;BME280;63427;49.654;6.596;2023-02-28T10:09:02;100698.70;;;6.40;25.94
74881;BME280;63427;49.654;6.596;2023-02-28T10:11:24;100699.03;;;7.45;24.91
74881;BME280;63427;49.654;6.596;2023-02-28T10:13:52;100708.39;;;7.30;24.45
74881;BME280;63427;49.654;6.596;2023-02-28T10:16:18;100700.89;;;6.83;24.30
74881;BME280;63427;49.654;6.596;2023-02-28T10:18:46;100704.13;;;6.89;24.57
74881;BME280;63427;49.654;6.596;2023-02-28T10:21:16;100704.36;;;6.75;24.80
74881;BME280;63427;49.654;6.596;2023-02-28T10:23:34;100708.31;;;6.18;25.09
74881;BME280;63427;49.654;6.596;2023-02-28T10:26:00;100700.99;;;6.63;24.75
74881;BME280;63427;49.654;6.596;2023-02-28T10:28:25;100706.40;;;7.15;24.33
74881;BME280;63427;49.654;6.596;2023-02-28T10:30:50;100695.80;;;6.79;24.35
74881;BME280;63427;49.654;6.596;2023-02-28T10:33:28;100689.67;;;6.63;24.26
74881;BME280;63427;49.654;6.596;2023-02-28T10:35:40;100697.68;;;6.99;24.51
74881;BME280;63427;49.654;6.596;2023-02-28T10:38:14;100692.43;;;7.44;24.04
74881;BME280;63427;49.654;6.596;2023-02-28T10:40:33;100688.87;;;6.95;24.41
74881;BME280;63427;49.654;6.596;2023-02-28T10:42:58;100686.98;;;7.80;23.62
74881;BME280;63427;49.654;6.596;2023-02-28T10:45:23;100681.77;;;7.26;24.09
74881;BME280;63427;49.654;6.596;2023-02-28T10:47:52;100672.82;;;8.09;23.09
74881;BME280;63427;49.654;6.596;2023-02-28T10:50:26;100672.78;;;8.88;22.53
74881;BME280;63427;49.654;6.596;2023-02-28T10:52:40;100670.42;;;8.41;23.56
74881;BME280;63427;49.654;6.596;2023-02-28T10:55:15;100667.73;;;8.40;22.37
74881;BME280;63427;49.654;6.596;2023-02-28T10:57:30;100662.25;;;7.71;23.03
74881;BME280;63427;49.654;6.596;2023-02-28T11:00:07;100663.50;;;6.86;23.66
74881;BME280;63427;49.654;6.596;2023-02-28T11:02:33;100665.43;;;7.31;23.23
74881;BME280;63427;49.654;6.596;2023-02-28T11:04:47;100659.69;;;8.45;22.47
74881;BME280;63427;49.654;6.596;2023-02-28T11:07:18;100664.54;;;8.75;22.27
74881;BME280;63427;49.654;6.596;2023-02-28T11:09:39;100662.32;;;9.16;21.50
74881;BME280;63427;49.654;6.596;2023-02-28T11:12:06;100661.75;;;9.04;21.22
74881;BME280;63427;49.654;6.596;2023-02-28T11:14:31;100666.06;;;8.92;21.57
74881;BME280;63427;49.654;6.596;2023-02-28T11:16:58;100669.74;;;8.37;21.14
74881;BME280;63427;49.654;6.596;2023-02-28T11:19:24;100653.70;;;8.04;21.44
74881;BME280;63427;49.654;6.596;2023-02-28T11:21:53;100655.32;;;7.90;20.81
74881;BME280;63427;49.654;6.596;2023-02-28T11:24:19;100654.17;;;7.73;20.53
74881;BME280;63427;49.654;6.596;2023-02-28T11:26:40;100657.05;;;7.77;21.11
74881;BME280;63427;49.654;6.596;2023-02-28T11:29:11;100660.03;;;7.60;20.84
74881;BME280;63427;49.654;6.596;2023-02-28T11:31:29;100659.70;;;7.94;21.61
74881;BME280;63427;49.654;6.596;2023-02-28T11:33:55;100657.26;;;7.65;20.78
74881;BME280;63427;49.654;6.596;2023-02-28T11:36:22;100656.68;;;7.85;20.93
74881;BME280;63427;49.654;6.596;2023-02-28T11:38:47;100656.33;;;8.41;19.77
74881;BME280;63427;49.654;6.596;2023-02-28T11:41:24;100652.13;;;8.45;20.12
74881;BME280;63427;49.654;6.596;2023-02-28T11:43:46;100653.61;;;8.57;21.52
74881;BME280;63427;49.654;6.596;2023-02-28T11:46:15;100657.07;;;7.71;20.64
74881;BME280;63427;49.654;6.596;2023-02-28T11:48:33;100649.55;;;8.15;20.18
74881;BME280;63427;49.654;6.596;2023-02-28T11:51:02;100645.47;;;8.64;19.81
74881;BME280;63427;49.654;6.596;2023-02-28T11:53:24;100642.24;;;8.18;20.19
74881;BME280;63427;49.654;6.596;2023-02-28T11:55:50;100639.20;;;8.56;19.81
74881;BME280;63427;49.654;6.596;2023-02-28T11:58:21;100640.55;;;9.16;19.11
74881;BME280;63427;49.654;6.596;2023-02-28T12:00:44;100644.44;;;8.57;19.89
74881;BME280;63427;49.654;6.596;2023-02-28T12:03:11;100642.10;;;9.01;19.20
74881;BME280;63427;49.654;6.596;2023-02-28T12:05:31;100642.88;;;8.48;19.44
74881;BME280;63427;49.654;6.596;2023-02-28T12:08:03;100648.00;;;7.44;20.55
74881;BME280;63427;49.654;6.596;2023-02-28T12:10:22;100645.30;;;7.31;20.95
74881;BME280;63427;49.654;6.596;2023-02-28T12:12:50;100648.12;;;6.59;21.61
74881;BME280;63427;49.654;6.596;2023-02-28T12:17:45;100646.54;;;7.58;21.14
74881;BME280;63427;49.654;6.596;2023-02-28T12:20:08;100636.79;;;8.26;20.65
74881;BME280;63427;49.654;6.596;2023-02-28T12:22:30;100641.44;;;7.79;20.42
74881;BME280;63427;49.654;6.596;2023-02-28T12:27:17;100633.40;;;7.56;20.88
74881;BME280;63427;49.654;6.596;2023-02-28T12:29:45;100626.14;;;8.56;20.62
74881;BME280;63427;49.654;6.596;2023-02-28T12:32:10;100633.17;;;8.99;20.07
74881;BME280;63427;49.654;6.596;2023-02-28T12:34:34;100621.72;;;9.31;20.79
74881;BME280;63427;49.654;6.596;2023-02-28T12:36:58;100623.10;;;10.38;19.91
74881;BME280;63427;49.654;6.596;2023-02-28T12:39:26;100627.18;;;9.47;19.67
74881;BME280;63427;49.654;6.596;2023-02-28T12:41:52;100614.74;;;8.91;19.86
74881;BME280;63427;49.654;6.596;2023-02-28T12:44:17;100612.45;;;8.65;19.27
74881;BME280;63427;49.654;6.596;2023-02-28T12:46:42;100617.94;;;8.74;20.00
74881;BME280;63427;49.654;6.596;2023-02-28T12:49:06;100612.81;;;9.98;18.48
74881;BME280;63427;49.654;6.596;2023-02-28T12:51:29;100606.62;;;9.75;18.79
74881;BME280;63427;49.654;6.596;2023-02-28T12:54:04;100611.29;;;9.14;18.90
74881;BME280;63427;49.654;6.596;2023-02-28T12:56:29;100602.63;;;7.87;19.59
74881;BME280;63427;49.654;6.596;2023-02-28T12:58:49;100598.70;;;7.98;19.67